sensor_id;sensor_type;location;lat;lon;timestamp;P1;durP1;ratioP1;P2;durP2;ratioP2
549;SDS011;20066;48.764;9.176;2023-08-01T00:00:02;6.40;;;3.73;;
549;SDS011;20066;48.764;9.176;2023-08-01T00:02:32;7.70;;;4.07;;
549;SDS011;20066;48.764;9.176;2023-08-01T00:05:00;6.73;;;3.80;;
549;SDS011;20066;48.764;9.176;2023-08-01T00:07:28;9.97;;;4.20;;
549;SDS011;20066;48.764;9.176;2023-08-01T00:09:56;10.70;;;4.47;;
549;SDS011;20066;48.764;9.176;2023-08-01T00:12:25;7.60;;;4.30;;
549;SDS011;20066;48.764;9.176;2023-08-01T00:14:53;7.60;;;3.87;;
549;SDS011;20066;48.764;9.176;2023-08-01T00:17:20;6.20;;;4.37;;
549;SDS011;20066;48.764;9.176;2023-08-01T00:19:49;8.50;;;4.33;;
549;SDS011;20066;48.764;9.176;2023-08-01T00:22:17;8.63;;;4.50;;
549;SDS011;20066;48.764;9.176;2023-08-01T00:24:46;9.10;;;4.33;;
549;SDS011;20066;48.764;9.176;2023-08-01T00:27:14;7.00;;;4.17;;
549;SDS011;20066;48.764;9.176;2023-08-01T00:29:43;13.37;;;3.97;;
549;SDS011;20066;48.764;9.176;2023-08-01T00:32:11;9.13;;;4.70;;
549;SDS011;20066;48.764;9.176;2023-08-01T00:34:39;9.80;;;4.50;;
549;SDS011;20066;48.764;9.176;2023-08-01T00:37:07;7.60;;;4.23;;
549;SDS011;20066;48.764;9.176;2023-08-01T00:39:35;9.40;;;4.67;;
549;SDS011;20066;48.764;9.176;2023-08-01T00:42:03;8.33;;;3.83;;
549;SDS011;20066;48.764;9.176;2023-08-01T00:44:31;8.80;;;4.10;;
549;SDS011;20066;48.764;9.176;2023-08-01T00:47:00;6.43;;;4.10;;
549;SDS011;20066;48.764;9.176;2023-08-01T00:49:28;6.70;;;4.20;;
549;SDS011;20066;48.764;9.176;2023-08-01T00:51:57;7.00;;;3.90;;
549;SDS011;20066;48.764;9.176;2023-08-01T00:54:25;8.67;;;4.20;;
549;SDS011;20066;48.764;9.176;2023-08-01T00:56:53;7.27;;;4.40;;
549;SDS011;20066;48.764;9.176;2023-08-01T00:59:21;8.77;;;4.50;;
549;SDS011;20066;48.764;9.176;2023-08-01T01:01:49;6.83;;;3.60;;
549;SDS011;20066;48.764;9.176;2023-08-01T01:04:18;8.73;;;4.40;;
549;SDS011;20066;48.764;9.176;2023-08-01T01:06:47;8.60;;;4.60;;
549;SDS011;20066;48.764;9.176;2023-08-01T01:09:19;8.50;;;4.73;;
549;SDS011;20066;48.764;9.176;2023-08-01T01:11:47;8.60;;;4.00;;
549;SDS011;20066;48.764;9.176;2023-08-01T01:14:15;9.03;;;3.50;;
549;SDS011;20066;48.764;9.176;2023-08-01T01:16:43;6.77;;;4.20;;
549;SDS011;20066;48.764;9.176;2023-08-01T01:19:11;7.20;;;4.70;;
549;SDS011;20066;48.764;9.176;2023-08-01T01:21:40;9.20;;;3.90;;
549;SDS011;20066;48.764;9.176;2023-08-01T01:24:10;7.67;;;3.50;;
549;SDS011;20066;48.764;9.176;2023-08-01T01:26:41;8.30;;;3.80;;
549;SDS011;20066;48.764;9.176;2023-08-01T01:29:10;7.27;;;4.37;;
549;SDS011;20066;48.764;9.176;2023-08-01T01:31:38;7.03;;;3.63;;
549;SDS011;20066;48.764;9.176;2023-08-01T01:34:07;9.30;;;4.10;;
549;SDS011;20066;48.764;9.176;2023-08-01T01:36:35;10.90;;;4.80;;
549;SDS011;20066;48.764;9.176;2023-08-01T01:39:04;9.77;;;4.53;;
549;SDS011;20066;48.764;9.176;2023-08-01T01:41:32;8.00;;;3.87;;
549;SDS011;20066;48.764;9.176;2023-08-01T01:44:00;9.87;;;4.70;;
549;SDS011;20066;48.764;9.176;2023-08-01T01:46:28;9.90;;;4.60;;
549;SDS011;20066;48.764;9.176;2023-08-01T01:48:56;7.57;;;4.33;;
549;SDS011;20066;48.764;9.176;2023-08-01T01:51:25;7.47;;;4.40;;
549;SDS011;20066;48.764;9.176;2023-08-01T01:53:53;7.00;;;4.70;;
549;SDS011;20066;48.764;9.176;2023-08-01T01:56:22;8.50;;;4.30;;
549;SDS011;20066;48.764;9.176;2023-08-01T01:58:51;9.60;;;4.33;;
549;SDS011;20066;48.764;9.176;2023-08-01T02:01:19;8.60;;;4.10;;
549;SDS011;20066;48.764;9.176;2023-08-01T02:03:46;7.90;;;4.20;;
549;SDS011;20066;48.764;9.176;2023-08-01T02:06:14;6.80;;;4.07;;
549;SDS011;20066;48.764;9.176;2023-08-01T02:08:42;8.17;;;4.33;;
549;SDS011;20066;48.764;9.176;2023-08-01T02:11:10;7.67;;;4.37;;
549;SDS011;20066;48.764;9.176;2023-08-01T02:13:39;9.00;;;4.67;;
549;SDS011;20066;48.764;9.176;2023-08-01T02:16:07;9.43;;;4.57;;
549;SDS011;20066;48.764;9.176;2023-08-01T02:18:34;7.20;;;4.50;;
549;SDS011;20066;48.764;9.176;2023-08-01T02:21:03;7.77;;;4.30;;
549;SDS011;20066;48.764;9.176;2023-08-01T02:23:30;11.53;;;4.90;;
549;SDS011;20066;48.764;9.176;2023-08-01T02:26:00;9.80;;;4.47;;
549;SDS011;20066;48.764;9.176;2023-08-01T02:28:27;7.63;;;4.70;;
549;SDS011;20066;48.764;9.176;2023-08-01T02:30:57;7.40;;;4.00;;
549;SDS011;20066;48.764;9.176;2023-08-01T02:33:24;7.30;;;3.97;;
549;SDS011;20066;48.764;9.176;2023-08-01T02:35:52;7.70;;;4.40;;
549;SDS011;20066;48.764;9.176;2023-08-01T02:38:20;7.73;;;4.20;;
549;SDS011;20066;48.764;9.176;2023-08-01T02:40:48;11.80;;;4.47;;
549;SDS011;20066;48.764;9.176;2023-08-01T02:43:18;9.53;;;4.50;;
549;SDS011;20066;48.764;9.176;2023-08-01T02:45:45;9.43;;;4.87;;
549;SDS011;20066;48.764;9.176;2023-08-01T02:48:15;8.07;;;4.50;;
549;SDS011;20066;48.764;9.176;2023-08-01T02:50:43;6.80;;;4.00;;
549;SDS011;20066;48.764;9.176;2023-08-01T02:53:11;9.03;;;4.83;;
549;SDS011;20066;48.764;9.176;2023-08-01T02:55:39;8.23;;;4.00;;
549;SDS011;20066;48.764;9.176;2023-08-01T02:58:06;6.60;;;3.93;;
549;SDS011;20066;48.764;9.176;2023-08-01T03:00:37;7.20;;;3.90;;
549;SDS011;20066;48.764;9.176;2023-08-01T03:03:05;6.63;;;3.80;;
549;SDS011;20066;48.764;9.176;2023-08-01T03:05:36;9.53;;;4.20;;
549;SDS011;20066;48.764;9.176;2023-08-01T03:08:04;12.30;;;4.47;;
549;SDS011;20066;48.764;9.176;2023-08-01T03:10:32;9.13;;;4.70;;
549;SDS011;20066;48.764;9.176;2023-08-01T03:13:02;13.40;;;4.63;;
549;SDS011;20066;48.764;9.176;2023-08-01T03:15:30;8.57;;;4.33;;
549;SDS011;20066;48.764;9.176;2023-08-01T03:17:58;8.07;;;3.90;;
549;SDS011;20066;48.764;9.176;2023-08-01T03:20:26;10.83;;;4.50;;
549;SDS011;20066;48.764;9.176;2023-08-01T03:22:55;8.10;;;4.40;;
549;SDS011;20066;48.764;9.176;2023-08-01T03:25:23;6.87;;;3.97;;
549;SDS011;20066;48.764;9.176;2023-08-01T03:27:51;8.87;;;4.93;;
549;SDS011;20066;48.764;9.176;2023-08-01T03:30:19;7.13;;;4.33;;
549;SDS011;20066;48.764;9.176;2023-08-01T03:32:47;9.60;;;4.00;;
549;SDS011;20066;48.764;9.176;2023-08-01T03:35:15;8.50;;;4.20;;
549;SDS011;20066;48.764;9.176;2023-08-01T03:37:43;7.53;;;4.30;;
549;SDS011;20066;48.764;9.176;2023-08-01T03:40:12;8.53;;;4.63;;
549;SDS011;20066;48.764;9.176;2023-08-01T03:42:40;7.80;;;4.10;;
549;SDS011;20066;48.764;9.176;2023-08-01T03:45:08;6.17;;;4.03;;
549;SDS011;20066;48.764;9.176;2023-08-01T03:47:36;8.90;;;3.73;;
549;SDS011;20066;48.764;9.176;2023-08-01T03:50:05;5.13;;;3.50;;
549;SDS011;20066;48.764;9.176;2023-08-01T03:52:33;9.50;;;4.20;;
549;SDS011;20066;48.764;9.176;2023-08-01T03:55:01;8.40;;;4.10;;
549;SDS011;20066;48.764;9.176;2023-08-01T03:57:30;6.67;;;3.50;;
549;SDS011;20066;48.764;9.176;2023-08-01T04:00:00;6.93;;;4.30;;
549;SDS011;20066;48.764;9.176;2023-08-01T04:02:29;9.33;;;4.23;;
549;SDS011;20066;48.764;9.176;2023-08-01T04:04:57;6.60;;;3.40;;
549;SDS011;20066;48.764;9.176;2023-08-01T04:07:25;7.13;;;4.27;;
549;SDS011;20066;48.764;9.176;2023-08-01T04:09:52;10.03;;;4.83;;
549;SDS011;20066;48.764;9.176;2023-08-01T04:12:20;7.90;;;4.27;;
549;SDS011;20066;48.764;9.176;2023-08-01T04:14:49;7.90;;;3.23;;
549;SDS011;20066;48.764;9.176;2023-08-01T04:17:17;10.20;;;4.60;;
549;SDS011;20066;48.764;9.176;2023-08-01T04:19:45;11.07;;;4.50;;
549;SDS011;20066;48.764;9.176;2023-08-01T04:22:13;9.70;;;4.00;;
549;SDS011;20066;48.764;9.176;2023-08-01T04:24:41;8.90;;;4.53;;
549;SDS011;20066;48.764;9.176;2023-08-01T04:27:08;7.37;;;4.00;;
549;SDS011;20066;48.764;9.176;2023-08-01T04:29:36;12.57;;;5.00;;
549;SDS011;20066;48.764;9.176;2023-08-01T04:32:06;7.73;;;3.90;;
549;SDS011;20066;48.764;9.176;2023-08-01T04:34:34;8.47;;;3.70;;
549;SDS011;20066;48.764;9.176;2023-08-01T04:37:03;4.03;;;2.37;;
549;SDS011;20066;48.764;9.176;2023-08-01T04:39:31;6.60;;;3.77;;
549;SDS011;20066;48.764;9.176;2023-08-01T04:41:59;4.37;;;2.70;;
549;SDS011;20066;48.764;9.176;2023-08-01T04:44:27;7.37;;;4.83;;
549;SDS011;20066;48.764;9.176;2023-08-01T04:46:55;8.27;;;4.33;;
549;SDS011;20066;48.764;9.176;2023-08-01T04:49:24;5.33;;;3.17;;
549;SDS011;20066;48.764;9.176;2023-08-01T04:51:52;9.37;;;3.97;;
549;SDS011;20066;48.764;9.176;2023-08-01T04:54:20;8.90;;;3.87;;
549;SDS011;20066;48.764;9.176;2023-08-01T04:56:48;8.20;;;3.77;;
549;SDS011;20066;48.764;9.176;2023-08-01T04:59:15;7.23;;;3.90;;
549;SDS011;20066;48.764;9.176;2023-08-01T05:01:43;8.33;;;3.93;;
549;SDS011;20066;48.764;9.176;2023-08-01T05:04:11;6.60;;;3.10;;
549;SDS011;20066;48.764;9.176;2023-08-01T05:06:40;12.53;;;4.60;;
549;SDS011;20066;48.764;9.176;2023-08-01T05:09:08;11.53;;;3.93;;
549;SDS011;20066;48.764;9.176;2023-08-01T05:11:36;6.57;;;3.87;;
549;SDS011;20066;48.764;9.176;2023-08-01T05:14:03;12.30;;;4.50;;
549;SDS011;20066;48.764;9.176;2023-08-01T05:16:32;12.00;;;4.40;;
549;SDS011;20066;48.764;9.176;2023-08-01T05:19:00;9.57;;;3.80;;
549;SDS011;20066;48.764;9.176;2023-08-01T05:21:27;10.60;;;3.73;;
549;SDS011;20066;48.764;9.176;2023-08-01T05:23:57;11.17;;;3.83;;
549;SDS011;20066;48.764;9.176;2023-08-01T05:26:25;6.40;;;4.10;;
549;SDS011;20066;48.764;9.176;2023-08-01T05:28:53;9.50;;;4.03;;
549;SDS011;20066;48.764;9.176;2023-08-01T05:31:21;10.83;;;4.60;;
549;SDS011;20066;48.764;9.176;2023-08-01T05:33:48;8.77;;;4.47;;
549;SDS011;20066;48.764;9.176;2023-08-01T05:36:16;8.80;;;4.13;;
549;SDS011;20066;48.764;9.176;2023-08-01T05:38:44;14.73;;;4.50;;
549;SDS011;20066;48.764;9.176;2023-08-01T05:41:13;9.23;;;4.70;;
549;SDS011;20066;48.764;9.176;2023-08-01T05:43:41;11.73;;;5.33;;
549;SDS011;20066;48.764;9.176;2023-08-01T05:46:10;8.70;;;5.03;;
549;SDS011;20066;48.764;9.176;2023-08-01T05:48:38;9.70;;;4.17;;
549;SDS011;20066;48.764;9.176;2023-08-01T05:51:05;12.13;;;4.63;;
549;SDS011;20066;48.764;9.176;2023-08-01T05:53:33;10.60;;;4.27;;
549;SDS011;20066;48.764;9.176;2023-08-01T05:56:01;8.27;;;5.13;;
549;SDS011;20066;48.764;9.176;2023-08-01T05:58:32;8.67;;;4.93;;
549;SDS011;20066;48.764;9.176;2023-08-01T06:01:00;6.43;;;4.03;;
549;SDS011;20066;48.764;9.176;2023-08-01T06:03:28;7.40;;;4.87;;
549;SDS011;20066;48.764;9.176;2023-08-01T06:05:56;10.83;;;4.73;;
549;SDS011;20066;48.764;9.176;2023-08-01T06:08:24;9.00;;;4.70;;
549;SDS011;20066;48.764;9.176;2023-08-01T06:10:52;7.60;;;4.73;;
549;SDS011;20066;48.764;9.176;2023-08-01T06:13:20;8.03;;;5.10;;
549;SDS011;20066;48.764;9.176;2023-08-01T06:15:50;9.07;;;4.67;;
549;SDS011;20066;48.764;9.176;2023-08-01T06:18:18;8.83;;;4.50;;
549;SDS011;20066;48.764;9.176;2023-08-01T06:20:46;9.30;;;4.80;;
549;SDS011;20066;48.764;9.176;2023-08-01T06:23:14;12.83;;;5.90;;
549;SDS011;20066;48.764;9.176;2023-08-01T06:25:42;7.87;;;4.57;;
549;SDS011;20066;48.764;9.176;2023-08-01T06:28:10;8.27;;;4.70;;
549;SDS011;20066;48.764;9.176;2023-08-01T06:30:37;9.53;;;5.10;;
549;SDS011;20066;48.764;9.176;2023-08-01T06:33:07;10.67;;;5.17;;
549;SDS011;20066;48.764;9.176;2023-08-01T06:35:34;11.37;;;5.53;;
549;SDS011;20066;48.764;9.176;2023-08-01T06:38:02;9.00;;;4.90;;
549;SDS011;20066;48.764;9.176;2023-08-01T06:40:30;10.13;;;5.60;;
549;SDS011;20066;48.764;9.176;2023-08-01T06:42:58;11.10;;;5.93;;
549;SDS011;20066;48.764;9.176;2023-08-01T06:45:26;9.20;;;5.50;;
549;SDS011;20066;48.764;9.176;2023-08-01T06:47:53;10.60;;;6.20;;
549;SDS011;20066;48.764;9.176;2023-08-01T06:50:23;13.53;;;7.50;;
549;SDS011;20066;48.764;9.176;2023-08-01T06:52:51;11.53;;;6.27;;
549;SDS011;20066;48.764;9.176;2023-08-01T06:55:18;16.13;;;7.43;;
549;SDS011;20066;48.764;9.176;2023-08-01T06:57:46;13.50;;;6.53;;
549;SDS011;20066;48.764;9.176;2023-08-01T07:00:14;12.70;;;7.23;;
549;SDS011;20066;48.764;9.176;2023-08-01T07:02:42;11.87;;;6.33;;
549;SDS011;20066;48.764;9.176;2023-08-01T07:05:10;15.17;;;7.40;;
549;SDS011;20066;48.764;9.176;2023-08-01T07:07:40;11.90;;;6.40;;
549;SDS011;20066;48.764;9.176;2023-08-01T07:10:08;14.87;;;6.47;;
549;SDS011;20066;48.764;9.176;2023-08-01T07:12:36;12.20;;;6.00;;
549;SDS011;20066;48.764;9.176;2023-08-01T07:15:05;10.03;;;5.70;;
549;SDS011;20066;48.764;9.176;2023-08-01T07:17:34;12.10;;;5.53;;
549;SDS011;20066;48.764;9.176;2023-08-01T07:20:02;11.77;;;6.43;;
549;SDS011;20066;48.764;9.176;2023-08-01T07:22:31;11.70;;;6.87;;
549;SDS011;20066;48.764;9.176;2023-08-01T07:25:00;12.00;;;5.53;;
549;SDS011;20066;48.764;9.176;2023-08-01T07:27:28;12.03;;;6.10;;
549;SDS011;20066;48.764;9.176;2023-08-01T07:29:56;10.30;;;5.50;;
549;SDS011;20066;48.764;9.176;2023-08-01T07:32:24;10.87;;;6.33;;
549;SDS011;20066;48.764;9.176;2023-08-01T07:34:52;9.50;;;5.70;;
549;SDS011;20066;48.764;9.176;2023-08-01T07:37:20;13.83;;;6.90;;
549;SDS011;20066;48.764;9.176;2023-08-01T07:39:49;9.77;;;5.60;;
549;SDS011;20066;48.764;9.176;2023-08-01T07:42:18;12.63;;;5.73;;
549;SDS011;20066;48.764;9.176;2023-08-01T07:44:46;11.77;;;5.57;;
549;SDS011;20066;48.764;9.176;2023-08-01T07:47:14;14.20;;;7.00;;
549;SDS011;20066;48.764;9.176;2023-08-01T07:49:42;9.43;;;4.70;;
549;SDS011;20066;48.764;9.176;2023-08-01T07:52:09;11.63;;;5.70;;
549;SDS011;20066;48.764;9.176;2023-08-01T07:54:37;10.50;;;5.27;;
549;SDS011;20066;48.764;9.176;2023-08-01T07:57:05;10.83;;;4.70;;
549;SDS011;20066;48.764;9.176;2023-08-01T07:59:35;8.37;;;5.03;;
549;SDS011;20066;48.764;9.176;2023-08-01T08:02:03;8.70;;;4.23;;
549;SDS011;20066;48.764;9.176;2023-08-01T08:04:31;13.50;;;4.33;;
549;SDS011;20066;48.764;9.176;2023-08-01T08:06:59;8.07;;;4.40;;
549;SDS011;20066;48.764;9.176;2023-08-01T08:09:27;6.97;;;3.23;;
549;SDS011;20066;48.764;9.176;2023-08-01T08:11:55;8.20;;;3.80;;
549;SDS011;20066;48.764;9.176;2023-08-01T08:14:23;7.47;;;3.37;;
549;SDS011;20066;48.764;9.176;2023-08-01T08:16:53;6.97;;;3.60;;
549;SDS011;20066;48.764;9.176;2023-08-01T08:19:20;7.33;;;3.33;;
549;SDS011;20066;48.764;9.176;2023-08-01T08:21:50;4.57;;;2.70;;
549;SDS011;20066;48.764;9.176;2023-08-01T08:24:18;9.40;;;4.30;;
549;SDS011;20066;48.764;9.176;2023-08-01T08:26:46;4.50;;;3.40;;
549;SDS011;20066;48.764;9.176;2023-08-01T08:29:14;8.10;;;3.60;;
549;SDS011;20066;48.764;9.176;2023-08-01T08:31:42;5.10;;;3.40;;
549;SDS011;20066;48.764;9.176;2023-08-01T08:34:11;12.73;;;3.43;;
549;SDS011;20066;48.764;9.176;2023-08-01T08:36:39;7.00;;;3.13;;
549;SDS011;20066;48.764;9.176;2023-08-01T08:39:07;5.47;;;3.60;;
549;SDS011;20066;48.764;9.176;2023-08-01T08:41:38;6.10;;;3.40;;
549;SDS011;20066;48.764;9.176;2023-08-01T08:44:12;6.53;;;3.63;;
549;SDS011;20066;48.764;9.176;2023-08-01T08:46:43;11.40;;;3.70;;
549;SDS011;20066;48.764;9.176;2023-08-01T08:49:13;7.70;;;4.57;;
549;SDS011;20066;48.764;9.176;2023-08-01T08:51:42;10.43;;;3.70;;
549;SDS011;20066;48.764;9.176;2023-08-01T08:54:11;6.10;;;3.60;;
549;SDS011;20066;48.764;9.176;2023-08-01T08:56:40;5.33;;;3.20;;
549;SDS011;20066;48.764;9.176;2023-08-01T08:59:08;7.20;;;3.90;;
549;SDS011;20066;48.764;9.176;2023-08-01T09:01:37;5.50;;;3.97;;
549;SDS011;20066;48.764;9.176;2023-08-01T09:04:06;6.13;;;3.40;;
549;SDS011;20066;48.764;9.176;2023-08-01T09:06:37;8.27;;;4.17;;
549;SDS011;20066;48.764;9.176;2023-08-01T09:09:09;4.70;;;2.73;;
549;SDS011;20066;48.764;9.176;2023-08-01T09:11:38;7.00;;;3.60;;
549;SDS011;20066;48.764;9.176;2023-08-01T09:14:09;5.43;;;3.33;;
549;SDS011;20066;48.764;9.176;2023-08-01T09:16:37;8.80;;;4.00;;
549;SDS011;20066;48.764;9.176;2023-08-01T09:19:07;6.27;;;3.70;;
549;SDS011;20066;48.764;9.176;2023-08-01T09:21:38;5.20;;;3.10;;
549;SDS011;20066;48.764;9.176;2023-08-01T09:24:09;5.30;;;3.33;;
549;SDS011;20066;48.764;9.176;2023-08-01T09:26:39;6.40;;;2.80;;
549;SDS011;20066;48.764;9.176;2023-08-01T09:29:08;5.50;;;3.03;;
549;SDS011;20066;48.764;9.176;2023-08-01T09:31:36;7.77;;;3.03;;
549;SDS011;20066;48.764;9.176;2023-08-01T09:34:06;5.23;;;2.63;;
549;SDS011;20066;48.764;9.176;2023-08-01T09:36:46;3.63;;;2.63;;
549;SDS011;20066;48.764;9.176;2023-08-01T09:39:15;4.77;;;3.93;;
549;SDS011;20066;48.764;9.176;2023-08-01T09:41:44;5.30;;;2.63;;
549;SDS011;20066;48.764;9.176;2023-08-01T09:44:12;3.60;;;2.97;;
549;SDS011;20066;48.764;9.176;2023-08-01T09:46:42;2.43;;;1.57;;
549;SDS011;20066;48.764;9.176;2023-08-01T09:49:11;3.23;;;2.23;;
549;SDS011;20066;48.764;9.176;2023-08-01T09:51:47;4.17;;;2.03;;
549;SDS011;20066;48.764;9.176;2023-08-01T09:54:16;3.30;;;2.30;;
549;SDS011;20066;48.764;9.176;2023-08-01T09:56:46;2.77;;;1.73;;
549;SDS011;20066;48.764;9.176;2023-08-01T09:59:16;3.30;;;2.20;;
549;SDS011;20066;48.764;9.176;2023-08-01T10:01:47;2.90;;;1.80;;
549;SDS011;20066;48.764;9.176;2023-08-01T10:04:17;3.17;;;2.13;;
549;SDS011;20066;48.764;9.176;2023-08-01T10:06:51;2.90;;;1.70;;
549;SDS011;20066;48.764;9.176;2023-08-01T10:09:22;2.50;;;1.70;;
549;SDS011;20066;48.764;9.176;2023-08-01T10:11:50;2.03;;;1.10;;
549;SDS011;20066;48.764;9.176;2023-08-01T10:14:19;2.67;;;1.47;;
549;SDS011;20066;48.764;9.176;2023-08-01T10:16:47;2.10;;;1.20;;
549;SDS011;20066;48.764;9.176;2023-08-01T10:19:16;5.73;;;1.73;;
549;SDS011;20066;48.764;9.176;2023-08-01T10:21:45;4.63;;;1.60;;
549;SDS011;20066;48.764;9.176;2023-08-01T10:24:16;3.20;;;1.97;;
549;SDS011;20066;48.764;9.176;2023-08-01T10:26:46;2.47;;;1.40;;
549;SDS011;20066;48.764;9.176;2023-08-01T10:29:14;4.43;;;2.10;;
549;SDS011;20066;48.764;9.176;2023-08-01T10:31:50;2.10;;;1.60;;
549;SDS011;20066;48.764;9.176;2023-08-01T10:34:19;2.33;;;1.77;;
549;SDS011;20066;48.764;9.176;2023-08-01T10:36:54;2.43;;;1.57;;
549;SDS011;20066;48.764;9.176;2023-08-01T10:39:24;2.97;;;1.80;;
549;SDS011;20066;48.764;9.176;2023-08-01T10:41:57;2.13;;;1.30;;
549;SDS011;20066;48.764;9.176;2023-08-01T10:44:26;2.67;;;1.53;;
549;SDS011;20066;48.764;9.176;2023-08-01T10:46:55;2.00;;;1.20;;
549;SDS011;20066;48.764;9.176;2023-08-01T10:49:33;2.10;;;1.63;;
549;SDS011;20066;48.764;9.176;2023-08-01T10:52:02;3.43;;;1.77;;
549;SDS011;20066;48.764;9.176;2023-08-01T10:54:34;2.40;;;1.60;;
549;SDS011;20066;48.764;9.176;2023-08-01T10:57:04;2.47;;;1.30;;
549;SDS011;20066;48.764;9.176;2023-08-01T10:59:33;2.73;;;1.70;;
549;SDS011;20066;48.764;9.176;2023-08-01T11:02:01;2.73;;;1.80;;
549;SDS011;20066;48.764;9.176;2023-08-01T11:04:29;2.10;;;1.50;;
549;SDS011;20066;48.764;9.176;2023-08-01T11:06:57;2.67;;;1.60;;
549;SDS011;20066;48.764;9.176;2023-08-01T11:09:26;2.30;;;1.40;;
549;SDS011;20066;48.764;9.176;2023-08-01T11:11:56;2.17;;;1.30;;
549;SDS011;20066;48.764;9.176;2023-08-01T11:14:27;2.10;;;1.30;;
549;SDS011;20066;48.764;9.176;2023-08-01T11:16:56;4.23;;;3.93;;
549;SDS011;20066;48.764;9.176;2023-08-01T11:19:27;5.83;;;5.53;;
549;SDS011;20066;48.764;9.176;2023-08-01T11:21:57;4.57;;;3.53;;
549;SDS011;20066;48.764;9.176;2023-08-01T11:24:26;6.37;;;6.00;;
549;SDS011;20066;48.764;9.176;2023-08-01T11:26:56;7.80;;;6.90;;
549;SDS011;20066;48.764;9.176;2023-08-01T11:29:24;5.43;;;5.13;;
549;SDS011;20066;48.764;9.176;2023-08-01T11:31:52;6.67;;;6.27;;
549;SDS011;20066;48.764;9.176;2023-08-01T11:34:21;5.33;;;5.03;;
549;SDS011;20066;48.764;9.176;2023-08-01T11:36:49;6.23;;;4.40;;
549;SDS011;20066;48.764;9.176;2023-08-01T11:39:17;4.23;;;3.97;;
549;SDS011;20066;48.764;9.176;2023-08-01T11:41:48;4.40;;;4.10;;
549;SDS011;20066;48.764;9.176;2023-08-01T11:44:17;3.50;;;1.80;;
549;SDS011;20066;48.764;9.176;2023-08-01T11:46:45;3.43;;;1.57;;
549;SDS011;20066;48.764;9.176;2023-08-01T11:49:13;3.57;;;1.80;;
549;SDS011;20066;48.764;9.176;2023-08-01T11:51:42;3.03;;;1.50;;
549;SDS011;20066;48.764;9.176;2023-08-01T11:54:13;2.90;;;1.90;;
549;SDS011;20066;48.764;9.176;2023-08-01T11:56:41;4.03;;;1.90;;
549;SDS011;20066;48.764;9.176;2023-08-01T11:59:11;2.00;;;1.10;;
549;SDS011;20066;48.764;9.176;2023-08-01T12:01:41;2.20;;;1.27;;
549;SDS011;20066;48.764;9.176;2023-08-01T12:04:10;3.37;;;1.87;;
549;SDS011;20066;48.764;9.176;2023-08-01T12:06:39;3.80;;;2.37;;
549;SDS011;20066;48.764;9.176;2023-08-01T12:09:08;3.07;;;1.50;;
549;SDS011;20066;48.764;9.176;2023-08-01T12:11:37;3.00;;;1.47;;
549;SDS011;20066;48.764;9.176;2023-08-01T12:14:07;4.67;;;1.93;;
549;SDS011;20066;48.764;9.176;2023-08-01T12:16:36;5.53;;;1.57;;
549;SDS011;20066;48.764;9.176;2023-08-01T12:19:08;2.80;;;1.47;;
549;SDS011;20066;48.764;9.176;2023-08-01T12:21:36;3.33;;;1.30;;
549;SDS011;20066;48.764;9.176;2023-08-01T12:24:04;2.90;;;1.47;;
549;SDS011;20066;48.764;9.176;2023-08-01T12:26:32;3.70;;;3.10;;
549;SDS011;20066;48.764;9.176;2023-08-01T12:29:01;2.90;;;2.70;;
549;SDS011;20066;48.764;9.176;2023-08-01T12:31:29;5.13;;;1.83;;
549;SDS011;20066;48.764;9.176;2023-08-01T12:33:58;3.53;;;3.33;;
549;SDS011;20066;48.764;9.176;2023-08-01T12:36:28;7.83;;;2.93;;
549;SDS011;20066;48.764;9.176;2023-08-01T12:38:56;4.00;;;2.83;;
549;SDS011;20066;48.764;9.176;2023-08-01T12:41:24;3.73;;;2.80;;
549;SDS011;20066;48.764;9.176;2023-08-01T12:43:52;3.33;;;2.43;;
549;SDS011;20066;48.764;9.176;2023-08-01T12:46:21;3.73;;;2.53;;
549;SDS011;20066;48.764;9.176;2023-08-01T12:48:52;2.90;;;2.33;;
549;SDS011;20066;48.764;9.176;2023-08-01T12:51:20;4.60;;;2.50;;
549;SDS011;20066;48.764;9.176;2023-08-01T12:53:49;3.47;;;2.67;;
549;SDS011;20066;48.764;9.176;2023-08-01T12:56:17;3.10;;;1.87;;
549;SDS011;20066;48.764;9.176;2023-08-01T12:58:46;2.80;;;2.13;;
549;SDS011;20066;48.764;9.176;2023-08-01T13:01:14;3.43;;;2.27;;
549;SDS011;20066;48.764;9.176;2023-08-01T13:03:42;4.30;;;2.87;;
549;SDS011;20066;48.764;9.176;2023-08-01T13:06:10;4.13;;;3.00;;
549;SDS011;20066;48.764;9.176;2023-08-01T13:08:39;4.87;;;3.00;;
549;SDS011;20066;48.764;9.176;2023-08-01T13:11:12;4.80;;;2.30;;
549;SDS011;20066;48.764;9.176;2023-08-01T13:13:41;2.67;;;1.70;;
549;SDS011;20066;48.764;9.176;2023-08-01T13:16:09;3.27;;;2.90;;
549;SDS011;20066;48.764;9.176;2023-08-01T13:18:37;4.40;;;1.73;;
549;SDS011;20066;48.764;9.176;2023-08-01T13:21:10;2.70;;;2.30;;
549;SDS011;20066;48.764;9.176;2023-08-01T13:23:38;4.10;;;2.20;;
549;SDS011;20066;48.764;9.176;2023-08-01T13:26:06;4.23;;;1.80;;
549;SDS011;20066;48.764;9.176;2023-08-01T13:28:35;3.50;;;1.60;;
549;SDS011;20066;48.764;9.176;2023-08-01T13:31:03;5.00;;;2.20;;
549;SDS011;20066;48.764;9.176;2023-08-01T13:33:31;3.40;;;1.80;;
549;SDS011;20066;48.764;9.176;2023-08-01T13:35:59;2.83;;;1.73;;
549;SDS011;20066;48.764;9.176;2023-08-01T13:38:26;2.87;;;2.00;;
549;SDS011;20066;48.764;9.176;2023-08-01T13:40:58;3.57;;;1.90;;
549;SDS011;20066;48.764;9.176;2023-08-01T13:43:26;3.40;;;2.07;;
549;SDS011;20066;48.764;9.176;2023-08-01T13:45:56;4.93;;;2.03;;
549;SDS011;20066;48.764;9.176;2023-08-01T13:48:24;4.43;;;1.90;;
549;SDS011;20066;48.764;9.176;2023-08-01T13:50:52;3.83;;;2.20;;
549;SDS011;20066;48.764;9.176;2023-08-01T13:53:20;3.83;;;2.10;;
549;SDS011;20066;48.764;9.176;2023-08-01T13:55:48;4.87;;;1.90;;
549;SDS011;20066;48.764;9.176;2023-08-01T13:58:16;4.17;;;2.20;;
549;SDS011;20066;48.764;9.176;2023-08-01T14:00:43;3.73;;;2.00;;
549;SDS011;20066;48.764;9.176;2023-08-01T14:03:13;6.33;;;2.40;;
549;SDS011;20066;48.764;9.176;2023-08-01T14:05:41;2.40;;;1.53;;
549;SDS011;20066;48.764;9.176;2023-08-01T14:08:09;3.13;;;2.07;;
549;SDS011;20066;48.764;9.176;2023-08-01T14:10:37;7.80;;;1.80;;
549;SDS011;20066;48.764;9.176;2023-08-01T14:13:05;3.10;;;1.60;;
549;SDS011;20066;48.764;9.176;2023-08-01T14:15:33;3.13;;;1.87;;
549;SDS011;20066;48.764;9.176;2023-08-01T14:18:01;6.90;;;2.30;;
549;SDS011;20066;48.764;9.176;2023-08-01T14:20:37;5.33;;;1.80;;
549;SDS011;20066;48.764;9.176;2023-08-01T14:23:05;3.10;;;1.67;;
549;SDS011;20066;48.764;9.176;2023-08-01T14:25:33;2.90;;;1.53;;
549;SDS011;20066;48.764;9.176;2023-08-01T14:28:01;4.17;;;1.97;;
549;SDS011;20066;48.764;9.176;2023-08-01T14:30:30;2.77;;;1.57;;
549;SDS011;20066;48.764;9.176;2023-08-01T14:33:01;3.80;;;1.70;;
549;SDS011;20066;48.764;9.176;2023-08-01T14:35:29;3.43;;;1.73;;
549;SDS011;20066;48.764;9.176;2023-08-01T14:37:59;4.00;;;1.97;;
549;SDS011;20066;48.764;9.176;2023-08-01T14:40:27;3.07;;;2.17;;
549;SDS011;20066;48.764;9.176;2023-08-01T14:42:55;2.03;;;1.10;;
549;SDS011;20066;48.764;9.176;2023-08-01T14:45:23;4.10;;;2.30;;
549;SDS011;20066;48.764;9.176;2023-08-01T14:47:51;3.37;;;1.80;;
549;SDS011;20066;48.764;9.176;2023-08-01T14:50:19;4.00;;;2.07;;
549;SDS011;20066;48.764;9.176;2023-08-01T14:52:47;3.70;;;1.63;;
549;SDS011;20066;48.764;9.176;2023-08-01T14:55:16;4.07;;;2.07;;
549;SDS011;20066;48.764;9.176;2023-08-01T14:57:46;3.50;;;1.90;;
549;SDS011;20066;48.764;9.176;2023-08-01T15:00:14;3.57;;;1.70;;
549;SDS011;20066;48.764;9.176;2023-08-01T15:02:42;3.47;;;1.90;;
549;SDS011;20066;48.764;9.176;2023-08-01T15:05:11;2.63;;;1.63;;
549;SDS011;20066;48.764;9.176;2023-08-01T15:07:39;2.83;;;1.70;;
549;SDS011;20066;48.764;9.176;2023-08-01T15:10:08;5.53;;;1.97;;
549;SDS011;20066;48.764;9.176;2023-08-01T15:12:39;3.57;;;1.63;;
549;SDS011;20066;48.764;9.176;2023-08-01T15:15:07;3.90;;;2.10;;
549;SDS011;20066;48.764;9.176;2023-08-01T15:17:36;3.80;;;1.80;;
549;SDS011;20066;48.764;9.176;2023-08-01T15:20:04;4.37;;;1.90;;